CheckWX is a tool to help pilots better visualize weather data.  It is not intended as a substitute for an official pre-flight weather briefing.

08:22:09 UTC

KIER METAR
Natchitoches Regional Airport
Natchitoches, Louisiana, USA
Current

7 mins ago

KIER 220815Z AUTO 10004KT 3SM BR OVC004 09/09 A3001 RMK AO2 T00860085
Observed
Feb-22 @ 08:15 UTC
Wind
  • 100° at 4 KTS
Visibility
3 SM
Flight Rules
LIFR
Conditions
Mist
Cloud Levels
  • Overcast at 400' AGL
Temperature
C / 48°F
Dewpoint
C / 48°F
Humidity
100%
Altimeter
30.01" Hg
Pressure
1016.22 hPa
Previous

27 mins ago

KIER 220755Z AUTO 08004KT 3SM BR OVC004 09/09 A3002 RMK AO2 LTG DSNT N AND NW T00860085
Observed
Feb-22 @ 07:55 UTC
Wind
  • 080° at 4 KTS
Visibility
3 SM
Flight Rules
LIFR
Conditions
Mist
Cloud Levels
  • Overcast at 400' AGL
Temperature
C / 48°F
Dewpoint
C / 48°F
Humidity
100%
Altimeter
30.02" Hg
Pressure
1016.62 hPa
Previous

47 mins ago

KIER 220735Z AUTO 07003KT 2 1/2SM BR OVC004 09/09 A3002 RMK AO2 T00850085
Observed
Feb-22 @ 07:35 UTC
Wind
  • 070° at 3 KTS
Visibility
2 1/2 SM
Flight Rules
LIFR
Conditions
Mist
Cloud Levels
  • Overcast at 400' AGL
Temperature
C / 48°F
Dewpoint
C / 48°F
Humidity
100%
Altimeter
30.02" Hg
Pressure
1016.62 hPa